Shin-oh Maru — JG5594 — position and weather

sailwx.info

Track history (hours):
 
Tides and Currents Weather Stations Pressure Air Temp Water Temp Dewpoint Dewpoint Depression Visibility Wind Speed Wind Dir Waves Ship Positions

Shin-oh Maru

Last reported at 2017-Jul-20 19:15 UTC. Time now 2017-Jul-21 06:36 UTC.
Position N 34°57' E 140°10'.

Length 161 m; draft 6.7 m.

Type: Cargo ship. MMSI: 431100859.

Date/timePositionNaut miles runAvg speedWind from/ knotsBaromVisibWave heightAir tempDewpointWater temp
2017-Jul-20 19:15N 34°57' E 140°10'720.4
2017-Jul-20 18:54N 34°54' E 140°02'920.0
2017-Jul-20 18:26N 34°51' E 139°51'920.6
2017-Jul-20 18:00N 34°57' E 139°43'1020.2
2017-Jul-20 17:30N 35°07' E 139°44'816.6
2017-Jul-20 17:00N 35°15' E 139°46'713.2
2017-Jul-20 16:31N 35°21' E 139°42'918.1
2017-Jul-20 16:01N 35°29' E 139°49'713.9
2017-Jul-20 15:31N 35°35' E 139°47'3 5.5
2017-Jul-20 15:00N 35°38' E 139°46'0 0.0
2017-Jul-20 13:58N 35°38' E 139°46'0 0.0
2017-Jul-20 13:28N 35°38' E 139°46'0 0.0
2017-Jul-20 12:58N 35°38' E 139°46'0 0.0
2017-Jul-20 12:28N 35°38' E 139°46'0 0.0
2017-Jul-20 11:58N 35°38' E 139°46'0 0.0
2017-Jul-20 11:28N 35°38' E 139°46'0 0.0
2017-Jul-20 10:58N 35°38' E 139°46'0 0.0
2017-Jul-20 10:28N 35°38' E 139°46'0 0.0
2017-Jul-20 09:55N 35°38' E 139°46'0 0.0
2017-Jul-20 09:28N 35°38' E 139°46'0 0.0
2017-Jul-20 08:58N 35°38' E 139°46'0 0.0
2017-Jul-20 08:28N 35°38' E 139°46'0 0.1
2017-Jul-20 08:00N 35°38' E 139°46'3 5.4
2017-Jul-20 07:31N 35°35' E 139°47'815.7
2017-Jul-20 07:01N 35°28' E 139°51'815.6
2017-Jul-20 06:30N 35°22' E 139°45'612.0
2017-Jul-20 06:00N 35°16' E 139°46'815.3
2017-Jul-20 05:30N 35°08' E 139°47'1019.2
2017-Jul-20 05:00N 34°59' E 139°43'3215.2
2017-Jul-20 02:54N 35°04' E 140°22'  
2017-Jul-16 21:22N 35°45' E 140°59'718.6
2017-Jul-16 20:59N 35°38' E 140°58'1120.0
2017-Jul-16 20:27N 35°29' E 140°50'3120.2
2017-Jul-16 18:54N 35°04' E 140°27'2119.3
2017-Jul-16 17:49N 34°53' E 140°05'1217.8
2017-Jul-16 17:10N 34°51' E 139°51'319.8
2017-Jul-16 17:00N 34°52' E 139°47'1018.9
2017-Jul-16 16:30N 35°01' E 139°42'919.1
2017-Jul-16 16:00N 35°10' E 139°45'713.9
2017-Jul-16 15:30N 35°17' E 139°45'714.8
2017-Jul-16 15:00N 35°24' E 139°43'918.3
2017-Jul-16 14:30N 35°31' E 139°51'714.8
2017-Jul-16 14:00N 35°37' E 139°46'1 1.0
2017-Jul-16 13:30N 35°38' E 139°46'0 0.0
2017-Jul-16 12:59N 35°38' E 139°46'0 0.0
2017-Jul-16 12:29N 35°38' E 139°46'0 0.0
2017-Jul-16 11:56N 35°38' E 139°46'0 0.0
2017-Jul-16 11:29N 35°38' E 139°46'0 0.0
2017-Jul-16 10:59N 35°38' E 139°46'0 0.0
2017-Jul-16 10:29N 35°38' E 139°46'0 0.0
2017-Jul-16 09:59N 35°38' E 139°46'0 0.0
2017-Jul-16 09:29N 35°38' E 139°46'0 0.0
2017-Jul-16 09:00N 35°38' E 139°46'2 3.7
2017-Jul-16 08:30N 35°36' E 139°47'713.8
2017-Jul-16 08:01N 35°31' E 139°52'917.1
2017-Jul-16 07:30N 35°24' E 139°46'611.6
2017-Jul-16 07:00N 35°18' E 139°45'611.6
2017-Jul-16 06:30N 35°12' E 139°47'918.8
2017-Jul-16 06:00N 35°03' E 139°46'816.9
2017-Jul-16 05:30N 34°54' E 139°45'  
2017-Jul-13 18:23N 34°56' E 140°11'718.7
2017-Jul-13 18:00N 34°52' E 140°03'1018.2
2017-Jul-13 17:28N 34°51' E 139°51'817.5
2017-Jul-13 17:00N 34°56' E 139°44'917.6
2017-Jul-13 16:30N 35°05' E 139°44'917.6
2017-Jul-13 16:00N 35°13' E 139°46'612.7
2017-Jul-13 15:30N 35°19' E 139°43'815.7
2017-Jul-13 15:00N 35°27' E 139°46'815.0
2017-Jul-13 14:30N 35°34' E 139°49'510.1
2017-Jul-13 14:00N 35°38' E 139°46'0 0.0
2017-Jul-13 13:30N 35°38' E 139°46'0 0.0
2017-Jul-13 12:58N 35°38' E 139°46'0 0.0
2017-Jul-13 12:28N 35°38' E 139°46'0 0.0
2017-Jul-13 11:58N 35°38' E 139°46'0 0.0
2017-Jul-13 11:28N 35°38' E 139°46'0 0.0
2017-Jul-13 10:58N 35°38' E 139°46'0 0.0
2017-Jul-13 10:28N 35°38' E 139°46'0 0.0
2017-Jul-13 09:58N 35°38' E 139°46'0 0.0
2017-Jul-13 09:25N 35°38' E 139°46'0 0.0
2017-Jul-13 08:58N 35°38' E 139°46'0 0.0
2017-Jul-13 08:28N 35°38' E 139°46'0 0.5
2017-Jul-13 08:00N 35°37' E 139°46'816.3
2017-Jul-13 07:31N 35°31' E 139°52'917.6
2017-Jul-13 07:00N 35°24' E 139°46'612.5
2017-Jul-13 06:30N 35°17' E 139°45'713.9
2017-Jul-13 06:00N 35°11' E 139°47'1019.0
2017-Jul-13 05:30N 35°01' E 139°45'816.5
2017-Jul-13 05:00N 34°53' E 139°47'3117.4
2017-Jul-13 03:14N 35°04' E 140°22'  
Track history (hours):
 
Tides and Currents Weather Stations Pressure Air Temp Water Temp Dewpoint Dewpoint Depression Visibility Wind Speed Wind Dir Waves Ship Positions

Shin-oh Maru

Last reported at 2017-Jul-20 19:15 UTC. Time now 2017-Jul-21 06:36 UTC.
Position N 34°57' E 140°10'.

Length 161 m; draft 6.7 m.

Type: Cargo ship. MMSI: 431100859.

Date/timePositionNaut miles runAvg speedWind from/ knotsBaromVisibWave heightAir tempDewpointWater temp
2017-Jul-20 19:15N 34°57' E 140°10'720.4
2017-Jul-20 18:54N 34°54' E 140°02'920.0
2017-Jul-20 18:26N 34°51' E 139°51'920.6
2017-Jul-20 18:00N 34°57' E 139°43'1020.2
2017-Jul-20 17:30N 35°07' E 139°44'816.6
2017-Jul-20 17:00N 35°15' E 139°46'713.2
2017-Jul-20 16:31N 35°21' E 139°42'918.1
2017-Jul-20 16:01N 35°29' E 139°49'713.9
2017-Jul-20 15:31N 35°35' E 139°47'3 5.5
2017-Jul-20 15:00N 35°38' E 139°46'0 0.0
2017-Jul-20 13:58N 35°38' E 139°46'0 0.0
2017-Jul-20 13:28N 35°38' E 139°46'0 0.0
2017-Jul-20 12:58N 35°38' E 139°46'0 0.0
2017-Jul-20 12:28N 35°38' E 139°46'0 0.0
2017-Jul-20 11:58N 35°38' E 139°46'0 0.0
2017-Jul-20 11:28N 35°38' E 139°46'0 0.0
2017-Jul-20 10:58N 35°38' E 139°46'0 0.0
2017-Jul-20 10:28N 35°38' E 139°46'0 0.0
2017-Jul-20 09:55N 35°38' E 139°46'0 0.0
2017-Jul-20 09:28N 35°38' E 139°46'0 0.0
2017-Jul-20 08:58N 35°38' E 139°46'0 0.0
2017-Jul-20 08:28N 35°38' E 139°46'0 0.1
2017-Jul-20 08:00N 35°38' E 139°46'3 5.4
2017-Jul-20 07:31N 35°35' E 139°47'815.7
2017-Jul-20 07:01N 35°28' E 139°51'815.6
2017-Jul-20 06:30N 35°22' E 139°45'612.0
2017-Jul-20 06:00N 35°16' E 139°46'815.3
2017-Jul-20 05:30N 35°08' E 139°47'1019.2
2017-Jul-20 05:00N 34°59' E 139°43'3215.2
2017-Jul-20 02:54N 35°04' E 140°22'  
2017-Jul-16 21:22N 35°45' E 140°59'718.6
2017-Jul-16 20:59N 35°38' E 140°58'1120.0
2017-Jul-16 20:27N 35°29' E 140°50'3120.2
2017-Jul-16 18:54N 35°04' E 140°27'2119.3
2017-Jul-16 17:49N 34°53' E 140°05'1217.8
2017-Jul-16 17:10N 34°51' E 139°51'319.8
2017-Jul-16 17:00N 34°52' E 139°47'1018.9
2017-Jul-16 16:30N 35°01' E 139°42'919.1
2017-Jul-16 16:00N 35°10' E 139°45'713.9
2017-Jul-16 15:30N 35°17' E 139°45'714.8
2017-Jul-16 15:00N 35°24' E 139°43'918.3
2017-Jul-16 14:30N 35°31' E 139°51'714.8
2017-Jul-16 14:00N 35°37' E 139°46'1 1.0
2017-Jul-16 13:30N 35°38' E 139°46'0 0.0
2017-Jul-16 12:59N 35°38' E 139°46'0 0.0
2017-Jul-16 12:29N 35°38' E 139°46'0 0.0
2017-Jul-16 11:56N 35°38' E 139°46'0 0.0
2017-Jul-16 11:29N 35°38' E 139°46'0 0.0
2017-Jul-16 10:59N 35°38' E 139°46'0 0.0
2017-Jul-16 10:29N 35°38' E 139°46'0 0.0
2017-Jul-16 09:59N 35°38' E 139°46'0 0.0
2017-Jul-16 09:29N 35°38' E 139°46'0 0.0
2017-Jul-16 09:00N 35°38' E 139°46'2 3.7
2017-Jul-16 08:30N 35°36' E 139°47'713.8
2017-Jul-16 08:01N 35°31' E 139°52'917.1
2017-Jul-16 07:30N 35°24' E 139°46'611.6
2017-Jul-16 07:00N 35°18' E 139°45'611.6
2017-Jul-16 06:30N 35°12' E 139°47'918.8
2017-Jul-16 06:00N 35°03' E 139°46'816.9
2017-Jul-16 05:30N 34°54' E 139°45'  
2017-Jul-13 18:23N 34°56' E 140°11'718.7
2017-Jul-13 18:00N 34°52' E 140°03'1018.2
2017-Jul-13 17:28N 34°51' E 139°51'817.5
2017-Jul-13 17:00N 34°56' E 139°44'917.6
2017-Jul-13 16:30N 35°05' E 139°44'917.6
2017-Jul-13 16:00N 35°13' E 139°46'612.7
2017-Jul-13 15:30N 35°19' E 139°43'815.7
2017-Jul-13 15:00N 35°27' E 139°46'815.0
2017-Jul-13 14:30N 35°34' E 139°49'510.1
2017-Jul-13 14:00N 35°38' E 139°46'0 0.0
2017-Jul-13 13:30N 35°38' E 139°46'0 0.0
2017-Jul-13 12:58N 35°38' E 139°46'0 0.0
2017-Jul-13 12:28N 35°38' E 139°46'0 0.0
2017-Jul-13 11:58N 35°38' E 139°46'0 0.0
2017-Jul-13 11:28N 35°38' E 139°46'0 0.0
2017-Jul-13 10:58N 35°38' E 139°46'0 0.0
2017-Jul-13 10:28N 35°38' E 139°46'0 0.0
2017-Jul-13 09:58N 35°38' E 139°46'0 0.0
2017-Jul-13 09:25N 35°38' E 139°46'0 0.0
2017-Jul-13 08:58N 35°38' E 139°46'0 0.0
2017-Jul-13 08:28N 35°38' E 139°46'0 0.5
2017-Jul-13 08:00N 35°37' E 139°46'816.3
2017-Jul-13 07:31N 35°31' E 139°52'917.6
2017-Jul-13 07:00N 35°24' E 139°46'612.5
2017-Jul-13 06:30N 35°17' E 139°45'713.9
2017-Jul-13 06:00N 35°11' E 139°47'1019.0
2017-Jul-13 05:30N 35°01' E 139°45'816.5
2017-Jul-13 05:00N 34°53' E 139°47'3117.4
2017-Jul-13 03:14N 35°04' E 140°22'  

Dump ship's entire track history